Time;durP1;ratioP1;P1;durP2;ratioP2;P2;SDS_P1;SDS_P2;PMS_P1;PMS_P2;Temp;Humidity;BMP_temperature;BMP_pressure;BME280_temperature;BME280_humidity;BME280_pressure;Samples;Min_cycle;Max_cycle;Signal;HPM_P1;HPM_P2
2022/09/28 00:01:18;;;;;;;;;;;10.30;99.90;;;;;;5072024;28;20044;-89
2022/09/28 00:03:46;;;;;;;7.13;3.17;;;10.30;99.90;;;;;;5073331;28;19904;-90
2022/09/28 00:06:13;;;;;;;8.88;4.10;;;10.30;99.90;;;;;;5073729;28;20024;-89
2022/09/28 00:08:39;;;;;;;9.82;3.63;;;10.30;99.90;;;;;;5073445;28;20036;-88
2022/09/28 00:11:07;;;;;;;6.32;3.70;;;10.30;99.90;;;;;;5073042;28;20086;-89
2022/09/28 00:13:34;;;;;;;6.25;3.55;;;10.30;99.90;;;;;;5073401;28;20025;-89
2022/09/28 00:16:06;;;;;;;5.70;3.25;;;10.30;99.90;;;;;;5073407;28;20020;-87
2022/09/28 00:18:32;;;;;;;4.07;3.17;;;10.30;99.90;;;;;;5073119;28;20107;-86
2022/09/28 00:21:04;;;;;;;4.22;3.00;;;10.30;99.90;;;;;;5073222;28;20088;-87
2022/09/28 00:23:31;;;;;;;6.10;3.28;;;10.30;99.90;;;;;;5074080;28;20070;-87
2022/09/28 00:26:04;;;;;;;5.00;2.72;;;10.20;99.90;;;;;;5072524;28;20033;-88
2022/09/28 00:28:30;;;;;;;3.97;2.30;;;10.20;99.90;;;;;;5072879;28;20175;-87
2022/09/28 00:30:57;;;;;;;4.03;2.13;;;10.20;99.90;;;;;;5072508;28;20058;-87
2022/09/28 00:33:23;;;;;;;3.05;2.20;;;10.10;99.90;;;;;;5073008;28;20489;-86
2022/09/28 00:35:56;;;;;;;3.28;1.85;;;10.10;99.90;;;;;;5072820;28;20028;-86
2022/09/28 00:38:25;;;;;;;3.28;1.98;;;10.00;99.90;;;;;;5073726;28;20082;-86
2022/09/28 00:40:51;;;;;;;5.50;1.83;;;10.00;99.90;;;;;;5073744;28;20027;-88
2022/09/28 00:43:20;;;;;;;;;;;10.00;99.90;;;;;;5073004;28;20488;-87
2022/09/28 00:46:01;;;;;;;3.17;1.30;;;10.00;99.90;;;;;;5072806;28;19993;-89
2022/09/28 00:48:30;;;;;;;2.50;1.20;;;9.90;99.90;;;;;;5072336;28;20052;-87
2022/09/28 00:50:58;;;;;;;5.68;1.65;;;9.90;99.90;;;;;;5072688;28;20025;-87
2022/09/28 00:53:29;;;;;;;2.10;1.00;;;9.90;99.90;;;;;;5072462;28;20032;-87
2022/09/28 00:56:02;;;;;;;2.70;1.30;;;9.90;99.90;;;;;;5072286;28;20229;-88
2022/09/28 00:58:38;;;;;;;3.00;1.30;;;9.90;99.90;;;;;;5072675;28;20538;-87
2022/09/28 01:01:04;;;;;;;2.35;1.05;;;9.80;99.90;;;;;;5072225;28;20374;-87
2022/09/28 01:03:32;;;;;;;2.67;1.40;;;9.80;99.90;;;;;;5072262;28;20052;-86
2022/09/28 01:06:01;;;;;;;11.27;1.33;;;9.80;99.90;;;;;;5073961;28;20497;-88
2022/09/28 01:08:30;;;;;;;8.73;1.10;;;9.70;99.90;;;;;;5072044;28;20032;-88
2022/09/28 01:10:58;;;;;;;4.18;1.20;;;9.70;99.90;;;;;;5077922;28;20037;-87
2022/09/28 01:13:23;;;;;;;5.25;0.88;;;9.70;99.90;;;;;;5087933;28;20021;-86
2022/09/28 01:15:58;;;;;;;;;;;9.70;99.90;;;;;;5077899;28;20036;-88
2022/09/28 01:19:01;;;;;;;2.50;0.90;;;9.60;99.90;;;;;;5072067;28;19904;-88
2022/09/28 01:21:27;;;;;;;2.40;1.65;;;9.60;99.90;;;;;;5072467;28;20504;-88
2022/09/28 01:23:59;;;;;;;;;;;9.60;99.90;;;;;;5072744;28;20063;-88
2022/09/28 01:26:33;;;;;;;3.83;0.95;;;9.60;99.90;;;;;;5072031;28;19904;-88
2022/09/28 01:29:15;;;;;;;3.92;0.98;;;9.50;99.90;;;;;;5072531;28;20032;-83
2022/09/28 01:31:45;;;;;;;4.50;0.95;;;9.50;99.90;;;;;;5071029;28;20020;-85
2022/09/28 01:34:17;;;;;;;2.17;1.13;;;9.40;99.90;;;;;;5070953;28;20031;-86
2022/09/28 01:36:52;;;;;;;2.97;0.93;;;9.40;99.90;;;;;;5072053;28;20120;-86
2022/09/28 01:39:33;;;;;;;4.82;1.20;;;9.30;99.90;;;;;;5071563;28;20032;-85
2022/09/28 01:42:04;;;;;;;3.22;1.00;;;9.30;99.90;;;;;;5070484;28;20032;-86
2022/09/28 01:44:31;;;;;;;4.05;1.17;;;9.30;99.90;;;;;;5072830;28;20032;-89
2022/09/28 01:47:03;;;;;;;3.83;1.17;;;9.30;99.90;;;;;;5071481;28;20028;-87
2022/09/28 01:49:38;;;;;;;3.40;1.25;;;9.20;99.90;;;;;;5058181;28;20062;-88
2022/09/28 01:52:11;;;;;;;1.75;0.70;;;9.20;99.90;;;;;;5035084;28;20033;-89
2022/09/28 01:54:47;;;;;;;2.90;0.73;;;9.30;99.90;;;;;;5035095;28;20025;-88
2022/09/28 01:57:31;;;;;;;2.45;1.05;;;9.30;99.90;;;;;;5035135;28;20055;-88
2022/09/28 02:00:05;;;;;;;2.50;1.20;;;9.30;99.90;;;;;;5034765;28;20028;-87
2022/09/28 02:02:36;;;;;;;4.03;1.10;;;9.30;99.90;;;;;;5034802;28;20074;-88
2022/09/28 02:05:14;;;;;;;2.80;1.60;;;9.20;99.90;;;;;;5032042;28;20021;-87
2022/09/28 02:08:04;;;;;;;2.55;1.08;;;9.20;99.90;;;;;;5033596;28;20025;-89
2022/09/28 02:10:47;;;;;;;3.08;1.02;;;9.20;99.90;;;;;;5034708;28;20482;-88
2022/09/28 02:13:21;;;;;;;2.65;1.40;;;9.30;99.90;;;;;;5034493;28;20029;-88
2022/09/28 02:16:30;;;;;;;1.92;1.17;;;9.30;99.90;;;;;;5034909;28;20036;-87
2022/09/28 02:18:56;;;;;;;3.17;1.17;;;9.30;99.90;;;;;;5017088;28;20064;-89
2022/09/28 02:21:26;;;;;;;1.92;0.88;;;9.30;99.90;;;;;;5054812;28;20052;-88
2022/09/28 02:24:01;;;;;;;3.20;0.93;;;9.30;99.90;;;;;;5034337;28;20021;-86
2022/09/28 02:26:31;;;;;;;6.82;0.60;;;9.30;99.90;;;;;;5052131;28;20082;-86
2022/09/28 02:28:57;;;;;;;1.33;0.68;;;9.40;99.90;;;;;;5052045;28;20033;-87
2022/09/28 02:31:23;;;;;;;1.77;0.60;;;9.40;99.90;;;;;;5036106;28;20504;-85
2022/09/28 02:33:50;;;;;;;;;;;9.40;99.90;;;;;;5038767;28;20053;-85
2022/09/28 02:36:15;;;;;;;2.47;0.73;;;9.50;99.90;;;;;;5037914;28;19913;-86
2022/09/28 02:38:41;;;;;;;;;;;9.40;99.90;;;;;;5055041;28;20052;-87
2022/09/28 02:41:06;;;;;;;2.00;0.70;;;9.40;99.90;;;;;;5038144;28;19905;-85
2022/09/28 02:43:37;;;;;;;;;;;9.40;99.90;;;;;;5056287;28;20021;-85
2022/09/28 02:46:24;;;;;;;1.88;0.80;;;9.40;99.90;;;;;;5055414;28;19905;-87
2022/09/28 02:49:05;;;;;;;1.92;0.80;;;9.40;99.90;;;;;;5053521;28;20080;-87
2022/09/28 02:51:46;;;;;;;1.55;0.50;;;9.40;99.90;;;;;;5074176;28;20032;-86
2022/09/28 02:54:47;;;;;;;3.33;0.65;;;9.40;99.90;;;;;;5074551;28;20021;-86
2022/09/28 02:57:47;;;;;;;0.82;0.50;;;9.40;99.90;;;;;;5074291;28;20028;-86
2022/09/28 03:00:21;;;;;;;0.95;0.30;;;9.40;99.90;;;;;;5074480;28;20021;-86
2022/09/28 03:03:19;;;;;;;0.80;0.40;;;9.40;99.90;;;;;;5074324;28;20032;-86
2022/09/28 03:06:37;;;;;;;1.13;0.40;;;9.40;99.90;;;;;;5054191;28;20021;-86
2022/09/28 03:09:35;;;;;;;0.83;0.30;;;9.40;99.90;;;;;;5018955;28;20096;-84
2022/09/28 03:12:08;;;;;;;2.45;0.60;;;9.40;99.90;;;;;;5027749;28;20343;-85
2022/09/28 03:14:34;;;;;;;1.08;0.50;;;9.50;99.90;;;;;;5074079;28;20037;-85
2022/09/28 03:16:59;;;;;;;;;;;9.50;99.90;;;;;;5074404;28;20138;-87
2022/09/28 03:19:33;;;;;;;2.25;0.40;;;9.40;99.90;;;;;;5073375;28;19913;-88
2022/09/28 03:21:58;;;;;;;6.53;0.50;;;9.40;99.90;;;;;;5074253;28;20032;-87
2022/09/28 03:24:24;;;;;;;;;;;9.40;99.90;;;;;;5074815;28;20135;-86
2022/09/28 03:26:50;;;;;;;0.85;0.40;;;9.50;99.90;;;;;;5075418;28;19905;-85
2022/09/28 03:29:15;;;;;;;;;;;9.40;99.90;;;;;;5075359;28;20119;-86
2022/09/28 03:31:42;;;;;;;1.33;0.40;;;9.40;99.90;;;;;;5073982;28;20418;-85
2022/09/28 03:34:08;;;;;;;0.88;0.40;;;9.30;99.90;;;;;;5072583;28;20056;-86
2022/09/28 03:36:34;;;;;;;;;;;9.30;99.90;;;;;;5074664;28;20060;-86
2022/09/28 03:38:59;;;;;;;1.45;0.43;;;9.30;99.90;;;;;;5073921;28;19904;-88
2022/09/28 03:41:28;;;;;;;;;;;9.40;99.90;;;;;;5075177;28;20028;-88
2022/09/28 03:43:54;;;;;;;1.98;0.40;;;9.30;99.90;;;;;;5075010;28;20047;-86
2022/09/28 03:46:19;;;;;;;;;;;9.30;99.90;;;;;;5074202;28;20071;-86
2022/09/28 03:48:45;;;;;;;4.68;0.70;;;9.30;99.90;;;;;;5073600;28;20361;-87
2022/09/28 03:51:11;;;;;;;;;;;9.30;99.90;;;;;;5074337;28;20055;-85
2022/09/28 03:53:37;;;;;;;2.28;0.70;;;9.40;99.90;;;;;;5073611;28;19904;-85
2022/09/28 03:56:03;;;;;;;;;;;9.30;99.90;;;;;;5075146;28;20035;-87
2022/09/28 03:58:29;;;;;;;2.27;0.60;;;9.30;99.90;;;;;;5076444;28;19919;-84
2022/09/28 04:00:59;;;;;;;;;;;9.30;99.90;;;;;;5078466;28;20601;-85
2022/09/28 04:03:25;;;;;;;4.22;0.70;;;9.30;99.90;;;;;;5075671;28;19909;-85
2022/09/28 04:05:51;;;;;;;;;;;9.30;99.90;;;;;;5077212;28;20074;-87
2022/09/28 04:08:17;;;;;;;1.65;0.80;;;9.20;99.90;;;;;;5073236;28;19966;-85
2022/09/28 04:10:43;;;;;;;5.55;0.70;;;9.20;99.90;;;;;;5074456;28;20032;-86
2022/09/28 04:13:09;;;;;;;;;;;9.20;99.90;;;;;;5074606;28;20021;-85
2022/09/28 04:15:36;;;;;;;5.13;0.60;;;9.20;99.90;;;;;;5073127;28;19930;-86
2022/09/28 04:18:03;;;;;;;1.38;0.50;;;9.10;99.90;;;;;;5073883;28;20040;-86
2022/09/28 04:20:28;;;;;;;1.40;0.50;;;9.10;99.90;;;;;;5073347;28;20127;-85
2022/09/28 04:22:54;;;;;;;;;;;9.00;99.90;;;;;;5073278;28;20044;-85
2022/09/28 04:25:19;;;;;;;1.15;0.40;;;8.90;99.90;;;;;;5074253;28;19908;-86
2022/09/28 04:30:29;;;;;;;4.57;0.60;;;8.90;99.90;;;;;;5071755;28;19938;-85
2022/09/28 04:32:55;;;;;;;;;;;8.90;99.90;;;;;;5073297;28;20545;-85
2022/09/28 04:35:20;;;;;;;4.18;0.80;;;8.80;99.90;;;;;;5072497;28;19912;-85
2022/09/28 04:37:46;;;;;;;;;;;8.70;99.90;;;;;;5073290;28;20032;-85
2022/09/28 04:40:12;;;;;;;1.77;0.60;;;8.70;99.90;;;;;;5073031;28;19957;-86
2022/09/28 04:42:37;;;;;;;;;;;8.70;99.90;;;;;;5073088;28;20450;-85
2022/09/28 04:45:03;;;;;;;4.00;0.70;;;8.70;99.90;;;;;;5073725;28;19926;-86
2022/09/28 04:47:29;;;;;;;2.10;0.70;;;8.70;99.90;;;;;;5072963;28;20051;-86
2022/09/28 04:49:55;;;;;;;;;;;8.70;99.90;;;;;;5072752;28;20397;-86
2022/09/28 04:52:20;;;;;;;1.35;0.50;;;8.70;99.90;;;;;;5071651;28;19911;-86
2022/09/28 04:54:46;;;;;;;;;;;8.80;99.90;;;;;;5071944;28;20051;-85
2022/09/28 04:57:12;;;;;;;3.58;0.40;;;8.80;99.90;;;;;;5070983;28;20535;-86
2022/09/28 04:59:37;;;;;;;;;;;8.90;99.90;;;;;;5073879;28;20416;-87
2022/09/28 05:02:03;;;;;;;3.20;0.82;;;8.90;99.90;;;;;;5071720;28;19908;-86
2022/09/28 05:04:29;;;;;;;;;;;9.00;99.90;;;;;;5073254;28;20028;-86
2022/09/28 05:06:56;;;;;;;4.32;1.17;;;9.00;99.90;;;;;;5072010;28;19904;-85
2022/09/28 05:09:21;;;;;;;3.35;0.90;;;9.00;99.90;;;;;;5071439;28;20024;-85
2022/09/28 05:11:51;;;;;;;;;;;9.10;99.90;;;;;;5072031;28;20090;-86
2022/09/28 05:14:20;;;;;;;3.90;0.57;;;9.20;99.90;;;;;;5071661;28;19908;-86
2022/09/28 05:16:47;;;;;;;2.17;0.40;;;9.20;99.90;;;;;;5072799;28;20032;-85
2022/09/28 05:19:13;;;;;;;2.38;0.30;;;9.30;99.90;;;;;;5071626;28;20020;-86
2022/09/28 05:21:38;;;;;;;;;;;9.40;99.90;;;;;;5072160;28;20044;-86
2022/09/28 05:24:06;;;;;;;0.68;0.40;;;9.50;99.90;;;;;;5071585;28;20387;-86
2022/09/28 05:26:32;;;;;;;1.58;0.28;;;9.60;99.90;;;;;;5071435;28;20024;-86
2022/09/28 05:28:58;;;;;;;7.32;0.63;;;9.70;99.90;;;;;;5053582;28;20029;-86
2022/09/28 05:31:25;;;;;;;;;;;9.80;99.90;;;;;;5052148;28;20021;-86
2022/09/28 05:33:52;;;;;;;2.30;0.30;;;9.90;99.90;;;;;;5051485;28;19904;-86
2022/09/28 05:36:18;;;;;;;4.03;0.32;;;10.00;99.90;;;;;;5062638;28;20013;-87
2022/09/28 05:38:44;;;;;;;3.47;1.58;;;10.10;99.90;;;;;;5070678;28;20024;-86
2022/09/28 05:41:10;;;;;;;;;;;10.10;99.90;;;;;;5072106;28;20035;-86
2022/09/28 05:43:37;;;;;;;0.95;0.70;;;10.20;99.90;;;;;;5072685;28;19923;-87
2022/09/28 05:46:03;;;;;;;1.52;0.30;;;10.10;99.90;;;;;;5071552;28;20643;-87
2022/09/28 05:48:29;;;;;;;5.78;0.30;;;10.20;99.90;;;;;;5071164;28;20051;-87
2022/09/28 05:50:55;;;;;;;;;;;10.20;99.90;;;;;;5071568;28;20028;-86
2022/09/28 05:53:21;;;;;;;1.98;0.30;;;10.30;99.90;;;;;;5071323;28;19954;-87
2022/09/28 05:55:46;;;;;;;;;;;10.40;99.90;;;;;;5071665;28;20116;-86
2022/09/28 05:58:12;;;;;;;0.75;0.30;;;10.50;99.90;;;;;;5071040;28;19912;-87
2022/09/28 06:00:38;;;;;;;;;;;10.60;99.90;;;;;;5072433;28;20013;-86
2022/09/28 06:03:07;;;;;;;1.70;0.30;;;10.70;99.90;;;;;;5071323;28;19905;-87
2022/09/28 06:05:35;;;;;;;0.88;0.40;;;10.70;99.90;;;;;;5073471;28;20024;-86
2022/09/28 06:08:03;;;;;;;0.85;0.43;;;10.90;99.90;;;;;;5075336;28;20570;-85
2022/09/28 06:10:28;;;;;;;1.98;0.60;;;11.00;99.90;;;;;;5076006;28;20125;-85
2022/09/28 06:12:55;;;;;;;;;;;11.10;99.90;;;;;;5075916;28;20021;-87
2022/09/28 06:15:23;;;;;;;3.63;0.43;;;11.40;99.90;;;;;;5074997;28;19905;-87
2022/09/28 06:17:58;;;;;;;3.13;0.77;;;11.70;99.90;;;;;;5075107;28;20473;-86
2022/09/28 06:20:25;;;;;;;1.38;0.40;;;12.30;99.90;;;;;;5075126;28;20111;-87
2022/09/28 06:22:52;;;;;;;1.05;0.50;;;13.00;99.90;;;;;;5075451;28;20077;-88
2022/09/28 06:25:18;;;;;;;1.35;0.38;;;13.70;99.90;;;;;;5076520;28;20025;-88
2022/09/28 06:27:53;;;;;;;3.88;0.40;;;14.50;99.90;;;;;;5075400;28;20031;-87
2022/09/28 06:30:19;;;;;;;6.60;0.60;;;15.40;99.90;;;;;;5075261;28;20036;-87
2022/09/28 06:32:44;;;;;;;1.85;0.55;;;16.10;99.90;;;;;;5073894;28;20035;-89
2022/09/28 06:35:10;;;;;;;3.85;0.40;;;16.80;99.90;;;;;;5057966;28;20098;-88
2022/09/28 06:37:35;;;;;;;3.83;0.60;;;17.30;99.90;;;;;;5068312;28;20017;-89
2022/09/28 06:40:01;;;;;;;2.85;0.50;;;18.00;99.90;;;;;;5069810;28;20063;-88
2022/09/28 06:42:26;;;;;;;2.72;0.55;;;18.60;99.90;;;;;;5058115;28;20120;-89
2022/09/28 06:44:52;;;;;;;1.95;0.75;;;18.90;99.90;;;;;;5080656;28;20039;-90
2022/09/28 06:47:18;;;;;;;7.53;4.35;;;19.30;99.00;;;;;;5083378;28;20385;-89
2022/09/28 06:49:45;;;;;;;2.95;2.13;;;19.90;98.50;;;;;;5072739;28;20056;-89
2022/09/28 06:52:10;;;;;;;5.80;4.88;;;20.30;96.60;;;;;;5073289;28;20482;-89
2022/09/28 06:54:36;;;;;;;2.08;0.80;;;20.70;96.00;;;;;;5073799;28;20111;-89
2022/09/28 06:57:02;;;;;;;2.33;0.40;;;21.00;94.60;;;;;;5073618;28;20055;-89
2022/09/28 06:59:28;;;;;;;1.00;0.40;;;21.40;93.00;;;;;;5075621;28;20031;-89
2022/09/28 07:01:54;;;;;;;4.63;0.50;;;21.30;91.90;;;;;;5074351;28;20473;-89
2022/09/28 07:04:20;;;;;;;0.60;0.40;;;21.70;91.30;;;;;;5089736;28;20044;-90
2022/09/28 07:06:46;;;;;;;0.75;0.45;;;21.60;90.90;;;;;;5074736;28;20477;-88
2022/09/28 07:09:12;;;;;;;1.38;0.50;;;21.80;88.70;;;;;;5074496;28;20032;-89
2022/09/28 07:11:38;;;;;;;2.10;0.43;;;21.70;86.20;;;;;;5074485;28;20032;-90
2022/09/28 07:14:05;;;;;;;0.88;0.55;;;21.60;88.00;;;;;;5074749;28;20024;-90
2022/09/28 07:16:31;;;;;;;1.55;0.40;;;21.40;87.40;;;;;;5073795;28;20066;-90
2022/09/28 07:18:56;;;;;;;1.15;0.60;;;21.10;87.30;;;;;;5076172;28;20024;-88
2022/09/28 07:21:22;;;;;;;1.25;0.40;;;21.00;87.90;;;;;;5094718;28;20028;-89
2022/09/28 07:23:48;;;;;;;1.55;0.80;;;20.90;87.40;;;;;;5094177;28;20081;-88
2022/09/28 07:26:14;;;;;;;8.00;3.92;;;20.80;88.70;;;;;;5095740;28;20165;-90
2022/09/28 07:28:41;;;;;;;3.50;1.38;;;20.80;89.10;;;;;;5060754;28;20043;-90
2022/09/28 07:31:08;;;;;;;2.08;0.82;;;20.70;87.50;;;;;;5053584;28;20064;-90
2022/09/28 07:33:34;;;;;;;8.75;2.13;;;20.50;88.30;;;;;;5053552;28;20017;-90
2022/09/28 07:36:01;;;;;;;4.40;1.85;;;20.20;89.10;;;;;;5064288;28;20036;-88
2022/09/28 07:38:27;;;;;;;4.55;1.77;;;20.30;90.30;;;;;;5065041;28;20052;-92
2022/09/28 07:41:10;;;;;;;9.32;3.38;;;20.50;90.40;;;;;;5054092;28;20496;-91
2022/09/28 07:43:38;;;;;;;1.45;0.60;;;20.60;88.90;;;;;;5061410;28;20517;-88
2022/09/28 07:46:13;;;;;;;2.63;0.40;;;20.60;89.40;;;;;;5073960;28;20405;-88
2022/09/28 07:48:41;;;;;;;1.98;1.23;;;20.00;89.60;;;;;;5073555;28;20047;-89
2022/09/28 07:51:07;;;;;;;2.97;0.50;;;19.60;90.70;;;;;;5073858;28;20056;-90
2022/09/28 07:53:33;;;;;;;2.40;0.30;;;19.30;91.80;;;;;;5073630;28;20033;-90
2022/09/28 07:56:03;;;;;;;4.45;0.40;;;19.10;93.50;;;;;;5074736;28;20085;-89
2022/09/28 07:58:31;;;;;;;0.70;0.30;;;18.90;93.90;;;;;;5073627;28;20031;-89
2022/09/28 08:00:59;;;;;;;0.65;0.30;;;18.80;93.80;;;;;;5073424;28;20025;-90
2022/09/28 08:03:26;;;;;;;0.73;0.30;;;19.00;93.70;;;;;;5073319;28;20012;-88
2022/09/28 08:06:00;;;;;;;1.58;0.40;;;19.40;92.40;;;;;;5074361;28;20029;-90
2022/09/28 08:08:26;;;;;;;6.65;0.40;;;19.90;91.70;;;;;;5073703;28;20156;-89
2022/09/28 08:10:52;;;;;;;0.63;0.30;;;19.90;91.10;;;;;;5073217;28;20028;-90
2022/09/28 08:13:18;;;;;;;0.82;0.30;;;20.00;91.80;;;;;;5073226;28;20077;-89
2022/09/28 08:15:49;;;;;;;0.90;0.40;;;20.40;91.20;;;;;;5072584;28;20056;-90
2022/09/28 08:18:15;;;;;;;3.00;0.32;;;20.90;90.60;;;;;;5073594;28;20016;-89
2022/09/28 08:23:25;;;;;;;4.10;0.32;;;21.90;89.00;;;;;;5076293;28;20043;-89
2022/09/28 08:25:52;;;;;;;2.13;0.50;;;22.40;86.10;;;;;;5092405;28;20476;-84
2022/09/28 08:28:20;;;;;;;1.15;0.20;;;22.80;84.40;;;;;;5089319;28;20023;-80
2022/09/28 08:30:47;;;;;;;0.35;0.30;;;23.10;82.70;;;;;;5050558;28;20501;-80
2022/09/28 08:33:14;;;;;;;1.73;0.50;;;23.40;81.00;;;;;;5060835;28;20078;-86
2022/09/28 08:35:40;;;;;;;2.75;0.52;;;23.50;79.80;;;;;;5071928;28;20039;-88
2022/09/28 08:38:07;;;;;;;1.05;0.40;;;23.70;75.40;;;;;;5072087;28;20024;-88
2022/09/28 08:40:43;;;;;;;3.63;0.40;;;23.90;74.50;;;;;;5073525;28;20074;-87
2022/09/28 08:43:47;;;;;;;0.90;0.35;;;23.80;73.80;;;;;;5058682;28;20029;-87
2022/09/28 08:46:16;;;;;;;1.20;0.47;;;24.00;71.00;;;;;;5060699;28;20107;-87
2022/09/28 08:48:57;;;;;;;3.15;0.60;;;23.90;72.60;;;;;;5068440;28;20064;-87
2022/09/28 08:51:35;;;;;;;9.23;7.00;;;23.90;73.30;;;;;;5072156;28;20028;-87
2022/09/28 08:54:22;;;;;;;2.13;0.60;;;24.30;72.00;;;;;;5071593;28;20048;-88
2022/09/28 08:56:53;;;;;;;6.72;0.63;;;24.50;72.70;;;;;;5072937;28;20024;-86
2022/09/28 08:59:25;;;;;;;1.67;0.50;;;24.70;71.60;;;;;;5071794;28;20033;-86
2022/09/28 09:02:02;;;;;;;2.58;0.40;;;24.80;70.80;;;;;;5071244;28;20024;-86
2022/09/28 09:04:28;;;;;;;1.95;0.43;;;24.90;68.70;;;;;;5070949;28;20047;-86
2022/09/28 09:07:23;;;;;;;1.40;0.73;;;24.90;68.10;;;;;;5071615;28;20035;-87
2022/09/28 09:09:51;;;;;;;1.20;0.60;;;25.00;66.30;;;;;;5070736;28;20032;-87
2022/09/28 09:12:51;;;;;;;0.77;0.30;;;25.00;66.10;;;;;;5071630;28;20032;-87
2022/09/28 09:15:27;;;;;;;6.28;0.85;;;25.20;65.60;;;;;;5071038;28;20037;-86
2022/09/28 09:18:21;;;;;;;1.73;0.75;;;25.30;68.60;;;;;;5068038;28;20186;-85
2022/09/28 09:20:57;;;;;;;2.15;1.00;;;25.60;66.90;;;;;;5070549;28;20055;-83
2022/09/28 09:23:48;;;;;;;1.98;0.68;;;26.00;64.70;;;;;;5072148;28;20035;-84
2022/09/28 09:26:18;;;;;;;2.65;0.68;;;26.10;63.00;;;;;;5026718;28;20064;-85
2022/09/28 09:29:02;;;;;;;2.72;0.55;;;25.60;63.10;;;;;;5052153;28;20029;-85
2022/09/28 09:31:55;;;;;;;0.95;0.40;;;25.70;64.80;;;;;;5052318;28;20056;-84
2022/09/28 09:34:30;;;;;;;3.05;0.40;;;25.80;63.10;;;;;;5053246;28;20055;-85
2022/09/28 09:37:12;;;;;;;2.53;0.50;;;25.90;65.30;;;;;;5053805;28;20078;-85
2022/09/28 09:40:00;;;;;;;2.50;0.50;;;26.00;62.80;;;;;;5052497;28;20035;-85
2022/09/28 09:43:16;;;;;;;1.23;0.55;;;26.00;62.00;;;;;;5050608;28;20048;-84
2022/09/28 09:46:12;;;;;;;4.57;3.47;;;26.10;62.40;;;;;;5029682;28;20040;-84
2022/09/28 09:48:49;;;;;;;0.90;0.60;;;26.20;59.80;;;;;;5066324;28;20060;-84
2022/09/28 09:51:38;;;;;;;1.27;0.52;;;26.10;61.30;;;;;;5051751;28;20064;-86
2022/09/28 09:54:43;;;;;;;4.28;0.57;;;26.00;61.30;;;;;;5051884;28;20035;-85
2022/09/28 09:57:38;;;;;;;0.68;0.40;;;26.20;60.20;;;;;;5044484;28;20648;-85
2022/09/28 10:00:10;;;;;;;2.22;0.43;;;26.20;60.20;;;;;;5049851;28;20136;-85
2022/09/28 10:02:38;;;;;;;0.80;0.40;;;25.90;61.80;;;;;;5052664;28;20512;-85
2022/09/28 10:05:06;;;;;;;1.83;0.40;;;25.90;60.90;;;;;;5049574;28;20520;-85
2022/09/28 10:08:09;;;;;;;0.70;0.50;;;25.70;61.00;;;;;;5050398;28;20075;-84
2022/09/28 10:10:37;;;;;;;2.47;1.17;;;25.10;61.40;;;;;;5051322;28;20065;-85
2022/09/28 10:13:04;;;;;;;4.22;2.40;;;24.90;63.10;;;;;;5050490;28;20032;-84
2022/09/28 10:15:34;;;;;;;2.10;0.40;;;25.20;62.90;;;;;;5052021;28;20032;-85
2022/09/28 10:18:08;;;;;;;0.65;0.40;;;25.40;62.50;;;;;;5049615;28;20071;-84
2022/09/28 10:20:37;;;;;;;1.48;0.50;;;25.40;60.40;;;;;;5048691;28;20070;-84
2022/09/28 10:23:08;;;;;;;1.58;0.40;;;25.20;61.30;;;;;;5050188;28;20385;-84
2022/09/28 10:25:36;;;;;;;0.98;0.35;;;24.60;62.70;;;;;;5051178;28;20473;-84
2022/09/28 10:28:05;;;;;;;0.90;0.40;;;23.80;64.60;;;;;;5050190;28;20105;-85
2022/09/28 10:30:43;;;;;;;0.80;0.30;;;23.10;65.20;;;;;;5049931;28;20041;-85
2022/09/28 10:33:28;;;;;;;1.52;0.40;;;22.50;66.90;;;;;;5051456;28;20417;-83
2022/09/28 10:35:54;;;;;;;2.90;0.60;;;21.90;68.60;;;;;;5049757;28;20025;-85
2022/09/28 10:38:21;;;;;;;3.88;0.40;;;21.50;68.80;;;;;;5051280;28;20036;-85
2022/09/28 10:41:10;;;;;;;0.85;0.30;;;21.00;70.00;;;;;;5050054;28;20075;-84
2022/09/28 10:44:04;;;;;;;1.35;0.30;;;20.50;72.50;;;;;;5048748;28;20116;-84
2022/09/28 10:46:32;;;;;;;2.63;1.25;;;20.30;74.60;;;;;;5050148;28;20021;-86
2022/09/28 10:49:20;;;;;;;1.00;0.40;;;20.00;73.10;;;;;;5044841;28;20065;-85
2022/09/28 10:51:50;;;;;;;1.02;0.40;;;19.80;72.70;;;;;;5031228;28;20049;-83
2022/09/28 10:54:18;;;;;;;1.77;0.75;;;19.40;73.70;;;;;;5033855;28;20108;-85
2022/09/28 10:56:46;;;;;;;0.90;0.40;;;19.30;76.30;;;;;;5036891;28;20129;-85
2022/09/28 10:59:30;;;;;;;8.30;0.60;;;19.00;77.80;;;;;;5028422;28;20044;-86
2022/09/28 11:02:12;;;;;;;1.60;0.40;;;18.70;79.80;;;;;;5033854;28;20029;-85
2022/09/28 11:04:42;;;;;;;3.83;0.40;;;18.60;82.00;;;;;;5033144;28;20063;-84
2022/09/28 11:07:24;;;;;;;1.83;0.40;;;18.70;80.80;;;;;;5041178;28;20095;-86
2022/09/28 11:09:53;;;;;;;1.80;0.50;;;19.00;81.40;;;;;;5016979;28;20048;-85
2022/09/28 11:12:22;;;;;;;3.83;0.40;;;19.30;80.70;;;;;;5032074;28;20033;-86
2022/09/28 11:14:55;;;;;;;4.05;0.50;;;19.40;82.30;;;;;;5036842;28;20036;-85
2022/09/28 11:17:39;;;;;;;2.63;0.50;;;19.50;80.70;;;;;;5019409;28;20448;-86
2022/09/28 11:20:23;;;;;;;4.30;0.50;;;19.60;80.70;;;;;;5016909;28;20048;-85
2022/09/28 11:22:50;;;;;;;3.13;0.50;;;19.50;81.00;;;;;;5034052;28;20083;-86
2022/09/28 11:25:15;;;;;;;2.35;0.60;;;19.50;82.70;;;;;;5033862;28;20029;-86
2022/09/28 11:27:51;;;;;;;2.60;0.57;;;19.50;81.80;;;;;;5033680;28;20547;-85
2022/09/28 11:30:32;;;;;;;0.90;0.40;;;19.40;83.50;;;;;;5016717;28;20076;-86
2022/09/28 11:33:27;;;;;;;2.58;0.60;;;19.40;84.50;;;;;;5033142;28;20029;-86
2022/09/28 11:36:02;;;;;;;3.75;2.03;;;19.50;83.70;;;;;;5029280;28;20047;-85
2022/09/28 11:38:56;;;;;;;6.65;1.40;;;19.40;83.50;;;;;;5032591;28;20067;-86
2022/09/28 11:41:34;;;;;;;1.52;0.50;;;19.10;84.10;;;;;;5030569;28;20087;-85
2022/09/28 11:44:40;;;;;;;0.98;0.40;;;18.80;86.90;;;;;;5020575;28;20090;-86
2022/09/28 11:47:33;;;;;;;4.82;0.50;;;18.80;88.10;;;;;;5025435;28;20183;-84
2022/09/28 11:50:05;;;;;;;1.25;0.40;;;19.00;89.30;;;;;;5058306;28;20049;-84
2022/09/28 11:53:02;;;;;;;1.88;0.50;;;19.20;88.90;;;;;;5052381;28;20025;-84
2022/09/28 11:55:33;;;;;;;;;;;19.40;87.40;;;;;;5052977;28;20379;-85
2022/09/28 11:58:10;;;;;;;2.03;0.52;;;19.40;87.30;;;;;;5051676;28;19912;-85
2022/09/28 12:00:38;;;;;;;;;;;19.50;87.50;;;;;;5052303;28;20083;-84
2022/09/28 12:03:17;;;;;;;1.75;0.70;;;19.50;87.70;;;;;;5051774;28;19943;-84
2022/09/28 12:05:59;;;;;;;1.95;0.50;;;19.60;88.40;;;;;;5061094;28;20028;-84
2022/09/28 12:08:36;;;;;;;1.77;0.82;;;19.70;88.40;;;;;;5070554;28;20423;-86
2022/09/28 12:11:11;;;;;;;0.93;0.47;;;19.60;87.60;;;;;;5072581;28;20033;-85
2022/09/28 12:13:43;;;;;;;0.95;0.50;;;19.60;87.60;;;;;;5072424;28;20048;-85
2022/09/28 12:16:43;;;;;;;1.60;0.60;;;19.40;87.50;;;;;;5072277;28;20091;-85
2022/09/28 12:19:32;;;;;;;0.90;0.40;;;19.20;88.50;;;;;;5062351;28;20111;-85
2022/09/28 12:22:14;;;;;;;1.73;0.40;;;19.20;88.80;;;;;;5064156;28;20020;-85
2022/09/28 12:24:44;;;;;;;1.00;0.50;;;19.20;87.10;;;;;;5070581;28;20124;-84
2022/09/28 12:27:13;;;;;;;1.20;0.40;;;19.20;85.30;;;;;;5054715;28;20099;-84
2022/09/28 12:29:46;;;;;;;1.60;0.65;;;19.20;84.80;;;;;;5053647;28;20032;-85
2022/09/28 12:32:26;;;;;;;2.38;0.80;;;19.20;86.10;;;;;;5068175;28;20031;-85
2022/09/28 12:34:52;;;;;;;2.90;0.60;;;19.20;86.80;;;;;;5064909;28;20021;-85
2022/09/28 12:37:38;;;;;;;1.55;0.40;;;19.40;85.80;;;;;;5066098;28;20456;-85
2022/09/28 12:40:07;;;;;;;1.70;0.50;;;19.40;86.60;;;;;;5071939;28;20111;-85
2022/09/28 12:43:03;;;;;;;2.10;0.60;;;19.40;86.40;;;;;;5068720;28;20515;-85
2022/09/28 12:45:45;;;;;;;4.40;1.95;;;19.30;87.50;;;;;;5069778;28;20144;-85
2022/09/28 12:48:14;;;;;;;5.20;0.80;;;19.30;88.30;;;;;;5073092;28;20065;-84
2022/09/28 12:51:08;;;;;;;7.22;1.48;;;19.30;86.40;;;;;;5071392;28;20127;-85
2022/09/28 12:53:37;;;;;;;6.35;1.63;;;19.30;86.10;;;;;;5071477;28;20028;-85
2022/09/28 12:56:03;;;;;;;2.25;1.00;;;19.40;84.60;;;;;;5071580;28;20044;-86
2022/09/28 12:58:41;;;;;;;3.00;1.40;;;19.40;84.70;;;;;;5071572;28;20054;-85
2022/09/28 13:01:27;;;;;;;3.50;1.60;;;19.40;84.40;;;;;;5071582;28;20036;-85
2022/09/28 13:04:30;;;;;;;2.65;0.98;;;19.40;84.10;;;;;;5070590;28;20047;-85
2022/09/28 13:07:02;;;;;;;5.68;0.85;;;19.30;83.80;;;;;;5071399;28;20039;-84
2022/09/28 13:09:40;;;;;;;3.33;1.48;;;19.20;84.60;;;;;;5070642;28;20040;-83
2022/09/28 13:12:15;;;;;;;5.70;1.95;;;19.30;85.30;;;;;;5071217;28;20059;-85
2022/09/28 13:14:43;;;;;;;5.38;3.38;;;19.20;85.30;;;;;;5070574;28;20024;-85
2022/09/28 13:17:27;;;;;;;5.20;1.85;;;19.00;85.40;;;;;;5070988;28;20081;-84
2022/09/28 13:20:37;;;;;;;6.85;2.83;;;19.00;86.30;;;;;;5070918;28;20478;-85
2022/09/28 13:23:22;;;;;;;1.65;1.38;;;18.90;86.10;;;;;;5024571;28;20107;-84
2022/09/28 13:25:58;;;;;;;3.45;0.82;;;18.70;86.70;;;;;;5070979;28;20028;-85
2022/09/28 13:28:25;;;;;;;2.42;1.48;;;18.60;87.80;;;;;;5071169;28;20108;-85
2022/09/28 13:30:52;;;;;;;2.25;0.85;;;18.60;87.20;;;;;;5070992;28;20058;-85
2022/09/28 13:33:29;;;;;;;5.25;0.95;;;18.70;88.90;;;;;;5072117;28;20032;-85
2022/09/28 13:35:55;;;;;;;2.35;0.60;;;18.90;87.20;;;;;;5070787;28;20440;-86